sensor_id;sensor_type;location;lat;lon;timestamp;P1;durP1;ratioP1;P2;durP2;ratioP2
16401;SDS011;8310;44.626;11.176;2023-09-07T00:02:04;7.85;;;3.35;;
16401;SDS011;8310;44.626;11.176;2023-09-07T00:04:32;5.75;;;3.53;;
16401;SDS011;8310;44.626;11.176;2023-09-07T00:07:00;4.65;;;3.33;;
16401;SDS011;8310;44.626;11.176;2023-09-07T00:09:29;7.63;;;3.78;;
16401;SDS011;8310;44.626;11.176;2023-09-07T00:11:56;7.72;;;3.50;;
16401;SDS011;8310;44.626;11.176;2023-09-07T00:14:23;8.60;;;3.65;;
16401;SDS011;8310;44.626;11.176;2023-09-07T00:16:51;6.90;;;3.55;;
16401;SDS011;8310;44.626;11.176;2023-09-07T00:19:18;5.75;;;3.30;;
16401;SDS011;8310;44.626;11.176;2023-09-07T00:21:46;8.60;;;4.05;;
16401;SDS011;8310;44.626;11.176;2023-09-07T00:24:15;8.40;;;3.90;;
16401;SDS011;8310;44.626;11.176;2023-09-07T00:26:41;6.47;;;3.28;;
16401;SDS011;8310;44.626;11.176;2023-09-07T00:29:08;8.95;;;3.08;;
16401;SDS011;8310;44.626;11.176;2023-09-07T00:31:35;5.13;;;2.80;;
16401;SDS011;8310;44.626;11.176;2023-09-07T00:34:03;8.70;;;3.50;;
16401;SDS011;8310;44.626;11.176;2023-09-07T00:36:30;6.55;;;3.30;;
16401;SDS011;8310;44.626;11.176;2023-09-07T00:38:58;7.55;;;3.95;;
16401;SDS011;8310;44.626;11.176;2023-09-07T00:41:27;6.20;;;3.95;;
16401;SDS011;8310;44.626;11.176;2023-09-07T00:43:54;5.53;;;3.55;;
16401;SDS011;8310;44.626;11.176;2023-09-07T00:46:21;6.55;;;3.30;;
16401;SDS011;8310;44.626;11.176;2023-09-07T00:48:49;9.52;;;4.13;;
16401;SDS011;8310;44.626;11.176;2023-09-07T00:51:17;7.97;;;3.10;;
16401;SDS011;8310;44.626;11.176;2023-09-07T00:53:44;7.28;;;3.80;;
16401;SDS011;8310;44.626;11.176;2023-09-07T00:56:12;4.88;;;4.05;;
16401;SDS011;8310;44.626;11.176;2023-09-07T00:58:42;6.47;;;3.72;;
16401;SDS011;8310;44.626;11.176;2023-09-07T01:01:10;6.85;;;4.03;;
16401;SDS011;8310;44.626;11.176;2023-09-07T01:03:37;9.30;;;3.75;;
16401;SDS011;8310;44.626;11.176;2023-09-07T01:06:07;5.72;;;4.47;;
16401;SDS011;8310;44.626;11.176;2023-09-07T01:08:40;9.13;;;4.22;;
16401;SDS011;8310;44.626;11.176;2023-09-07T01:11:14;10.82;;;3.85;;
16401;SDS011;8310;44.626;11.176;2023-09-07T01:13:43;7.90;;;4.75;;
16401;SDS011;8310;44.626;11.176;2023-09-07T01:16:11;7.60;;;5.07;;
16401;SDS011;8310;44.626;11.176;2023-09-07T01:18:40;6.32;;;4.78;;
16401;SDS011;8310;44.626;11.176;2023-09-07T01:21:08;10.27;;;4.70;;
16401;SDS011;8310;44.626;11.176;2023-09-07T01:23:40;9.25;;;5.13;;
16401;SDS011;8310;44.626;11.176;2023-09-07T01:26:09;7.55;;;5.10;;
16401;SDS011;8310;44.626;11.176;2023-09-07T01:28:37;5.85;;;4.97;;
16401;SDS011;8310;44.626;11.176;2023-09-07T01:31:05;8.88;;;5.25;;
16401;SDS011;8310;44.626;11.176;2023-09-07T01:33:32;8.45;;;5.00;;
16401;SDS011;8310;44.626;11.176;2023-09-07T01:36:00;5.80;;;5.05;;
16401;SDS011;8310;44.626;11.176;2023-09-07T01:38:27;5.82;;;5.20;;
16401;SDS011;8310;44.626;11.176;2023-09-07T01:40:56;10.35;;;5.40;;
16401;SDS011;8310;44.626;11.176;2023-09-07T01:43:24;7.20;;;4.90;;
16401;SDS011;8310;44.626;11.176;2023-09-07T01:45:52;11.88;;;5.40;;
16401;SDS011;8310;44.626;11.176;2023-09-07T01:48:19;12.15;;;6.40;;
16401;SDS011;8310;44.626;11.176;2023-09-07T01:50:51;11.27;;;6.32;;
16401;SDS011;8310;44.626;11.176;2023-09-07T01:53:19;9.05;;;6.38;;
16401;SDS011;8310;44.626;11.176;2023-09-07T01:55:47;8.45;;;5.93;;
16401;SDS011;8310;44.626;11.176;2023-09-07T01:58:16;9.88;;;6.07;;
16401;SDS011;8310;44.626;11.176;2023-09-07T02:00:44;8.10;;;5.97;;
16401;SDS011;8310;44.626;11.176;2023-09-07T02:03:11;8.65;;;6.63;;
16401;SDS011;8310;44.626;11.176;2023-09-07T02:05:39;11.45;;;6.97;;
16401;SDS011;8310;44.626;11.176;2023-09-07T02:08:07;11.32;;;6.57;;
16401;SDS011;8310;44.626;11.176;2023-09-07T02:10:34;8.45;;;6.63;;
16401;SDS011;8310;44.626;11.176;2023-09-07T02:13:02;9.88;;;7.07;;
16401;SDS011;8310;44.626;11.176;2023-09-07T02:15:31;11.18;;;8.38;;
16401;SDS011;8310;44.626;11.176;2023-09-07T02:17:59;9.50;;;7.32;;
16401;SDS011;8310;44.626;11.176;2023-09-07T02:20:28;12.73;;;7.60;;
16401;SDS011;8310;44.626;11.176;2023-09-07T02:22:56;13.85;;;7.35;;
16401;SDS011;8310;44.626;11.176;2023-09-07T02:25:23;12.10;;;6.72;;
16401;SDS011;8310;44.626;11.176;2023-09-07T02:27:50;10.95;;;7.72;;
16401;SDS011;8310;44.626;11.176;2023-09-07T02:30:18;9.45;;;7.10;;
16401;SDS011;8310;44.626;11.176;2023-09-07T02:32:47;16.35;;;7.20;;
16401;SDS011;8310;44.626;11.176;2023-09-07T02:35:15;9.40;;;7.63;;
16401;SDS011;8310;44.626;11.176;2023-09-07T02:37:43;8.45;;;6.97;;
16401;SDS011;8310;44.626;11.176;2023-09-07T02:40:10;10.18;;;6.80;;
16401;SDS011;8310;44.626;11.176;2023-09-07T02:42:40;10.68;;;6.75;;
16401;SDS011;8310;44.626;11.176;2023-09-07T02:45:09;15.15;;;7.60;;
16401;SDS011;8310;44.626;11.176;2023-09-07T02:47:37;9.88;;;7.13;;
16401;SDS011;8310;44.626;11.176;2023-09-07T02:50:07;12.13;;;7.72;;
16401;SDS011;8310;44.626;11.176;2023-09-07T02:52:35;11.98;;;7.75;;
16401;SDS011;8310;44.626;11.176;2023-09-07T02:55:02;8.93;;;7.18;;
16401;SDS011;8310;44.626;11.176;2023-09-07T02:57:30;11.20;;;7.13;;
16401;SDS011;8310;44.626;11.176;2023-09-07T02:59:57;12.98;;;7.40;;
16401;SDS011;8310;44.626;11.176;2023-09-07T03:02:25;9.60;;;7.20;;
16401;SDS011;8310;44.626;11.176;2023-09-07T03:04:53;12.18;;;7.65;;
16401;SDS011;8310;44.626;11.176;2023-09-07T03:07:25;14.35;;;6.78;;
16401;SDS011;8310;44.626;11.176;2023-09-07T03:09:53;8.80;;;6.95;;
16401;SDS011;8310;44.626;11.176;2023-09-07T03:12:20;10.63;;;7.22;;
16401;SDS011;8310;44.626;11.176;2023-09-07T03:14:48;8.70;;;7.32;;
16401;SDS011;8310;44.626;11.176;2023-09-07T03:17:16;10.98;;;7.38;;
16401;SDS011;8310;44.626;11.176;2023-09-07T03:19:44;12.57;;;7.35;;
16401;SDS011;8310;44.626;11.176;2023-09-07T03:22:11;14.57;;;7.72;;
16401;SDS011;8310;44.626;11.176;2023-09-07T03:24:40;9.07;;;7.07;;
16401;SDS011;8310;44.626;11.176;2023-09-07T03:27:07;10.98;;;7.22;;
16401;SDS011;8310;44.626;11.176;2023-09-07T03:29:36;9.15;;;7.32;;
16401;SDS011;8310;44.626;11.176;2023-09-07T03:32:03;11.82;;;7.63;;
16401;SDS011;8310;44.626;11.176;2023-09-07T03:34:32;9.02;;;7.55;;
16401;SDS011;8310;44.626;11.176;2023-09-07T03:36:59;11.23;;;8.20;;
16401;SDS011;8310;44.626;11.176;2023-09-07T03:39:26;11.80;;;7.95;;
16401;SDS011;8310;44.626;11.176;2023-09-07T03:41:55;9.77;;;7.63;;
16401;SDS011;8310;44.626;11.176;2023-09-07T03:44:23;12.95;;;8.25;;
16401;SDS011;8310;44.626;11.176;2023-09-07T03:46:50;15.23;;;7.97;;
16401;SDS011;8310;44.626;11.176;2023-09-07T03:49:18;13.40;;;8.52;;
16401;SDS011;8310;44.626;11.176;2023-09-07T03:51:45;17.27;;;8.63;;
16401;SDS011;8310;44.626;11.176;2023-09-07T03:54:12;11.23;;;8.52;;
16401;SDS011;8310;44.626;11.176;2023-09-07T03:56:41;9.73;;;8.38;;
16401;SDS011;8310;44.626;11.176;2023-09-07T03:59:09;9.60;;;8.60;;
16401;SDS011;8310;44.626;11.176;2023-09-07T04:01:37;14.65;;;8.98;;
16401;SDS011;8310;44.626;11.176;2023-09-07T04:04:05;15.23;;;8.45;;
16401;SDS011;8310;44.626;11.176;2023-09-07T04:06:32;14.43;;;8.88;;
16401;SDS011;8310;44.626;11.176;2023-09-07T04:09:00;10.55;;;8.18;;
16401;SDS011;8310;44.626;11.176;2023-09-07T04:11:27;12.10;;;8.35;;
16401;SDS011;8310;44.626;11.176;2023-09-07T04:13:55;13.20;;;7.45;;
16401;SDS011;8310;44.626;11.176;2023-09-07T04:16:24;11.20;;;8.18;;
16401;SDS011;8310;44.626;11.176;2023-09-07T04:18:52;13.13;;;8.13;;
16401;SDS011;8310;44.626;11.176;2023-09-07T04:21:19;10.73;;;8.05;;
16401;SDS011;8310;44.626;11.176;2023-09-07T04:23:47;15.45;;;9.27;;
16401;SDS011;8310;44.626;11.176;2023-09-07T04:26:14;9.85;;;8.02;;
16401;SDS011;8310;44.626;11.176;2023-09-07T04:28:41;12.35;;;8.07;;
16401;SDS011;8310;44.626;11.176;2023-09-07T04:31:09;11.20;;;7.88;;
16401;SDS011;8310;44.626;11.176;2023-09-07T04:33:38;11.02;;;8.45;;
16401;SDS011;8310;44.626;11.176;2023-09-07T04:36:07;12.15;;;7.85;;
16401;SDS011;8310;44.626;11.176;2023-09-07T04:38:35;12.30;;;8.25;;
16401;SDS011;8310;44.626;11.176;2023-09-07T04:41:06;12.68;;;8.18;;
16401;SDS011;8310;44.626;11.176;2023-09-07T04:43:34;9.57;;;7.85;;
16401;SDS011;8310;44.626;11.176;2023-09-07T04:46:02;13.48;;;7.85;;
16401;SDS011;8310;44.626;11.176;2023-09-07T04:48:29;15.60;;;8.90;;
16401;SDS011;8310;44.626;11.176;2023-09-07T04:50:59;10.13;;;8.50;;
16401;SDS011;8310;44.626;11.176;2023-09-07T04:53:28;16.77;;;9.18;;
16401;SDS011;8310;44.626;11.176;2023-09-07T04:58:24;18.85;;;9.50;;
16401;SDS011;8310;44.626;11.176;2023-09-07T05:00:52;23.17;;;11.50;;
16401;SDS011;8310;44.626;11.176;2023-09-07T05:03:19;17.50;;;10.43;;
16401;SDS011;8310;44.626;11.176;2023-09-07T05:05:50;14.90;;;10.10;;
16401;SDS011;8310;44.626;11.176;2023-09-07T05:08:20;14.88;;;10.30;;
16401;SDS011;8310;44.626;11.176;2023-09-07T05:10:54;14.50;;;9.98;;
16401;SDS011;8310;44.626;11.176;2023-09-07T05:13:22;16.33;;;9.88;;
16401;SDS011;8310;44.626;11.176;2023-09-07T05:15:50;15.40;;;9.88;;
16401;SDS011;8310;44.626;11.176;2023-09-07T05:20:46;16.35;;;9.40;;
16401;SDS011;8310;44.626;11.176;2023-09-07T05:23:16;17.67;;;9.68;;
16401;SDS011;8310;44.626;11.176;2023-09-07T05:25:46;16.58;;;9.77;;
16401;SDS011;8310;44.626;11.176;2023-09-07T05:28:14;15.35;;;9.45;;
16401;SDS011;8310;44.626;11.176;2023-09-07T05:30:42;21.98;;;9.27;;
16401;SDS011;8310;44.626;11.176;2023-09-07T05:33:10;14.20;;;8.00;;
16401;SDS011;8310;44.626;11.176;2023-09-07T05:35:39;13.18;;;8.68;;
16401;SDS011;8310;44.626;11.176;2023-09-07T05:38:07;13.02;;;8.15;;
16401;SDS011;8310;44.626;11.176;2023-09-07T05:40:35;13.15;;;8.25;;
16401;SDS011;8310;44.626;11.176;2023-09-07T05:43:05;17.85;;;8.95;;
16401;SDS011;8310;44.626;11.176;2023-09-07T05:45:34;15.27;;;8.02;;
16401;SDS011;8310;44.626;11.176;2023-09-07T05:48:03;11.27;;;7.68;;
16401;SDS011;8310;44.626;11.176;2023-09-07T05:53:00;15.65;;;7.75;;
16401;SDS011;8310;44.626;11.176;2023-09-07T05:55:28;13.15;;;7.35;;
16401;SDS011;8310;44.626;11.176;2023-09-07T05:57:55;14.55;;;7.35;;
16401;SDS011;8310;44.626;11.176;2023-09-07T06:00:25;11.00;;;7.63;;
16401;SDS011;8310;44.626;11.176;2023-09-07T06:02:52;10.68;;;7.22;;
16401;SDS011;8310;44.626;11.176;2023-09-07T06:05:20;16.63;;;7.28;;
16401;SDS011;8310;44.626;11.176;2023-09-07T06:07:48;13.02;;;7.40;;
16401;SDS011;8310;44.626;11.176;2023-09-07T06:10:15;20.27;;;8.57;;
16401;SDS011;8310;44.626;11.176;2023-09-07T06:12:44;10.63;;;7.53;;
16401;SDS011;8310;44.626;11.176;2023-09-07T06:15:11;14.77;;;7.00;;
16401;SDS011;8310;44.626;11.176;2023-09-07T06:17:40;12.45;;;7.43;;
16401;SDS011;8310;44.626;11.176;2023-09-07T06:20:09;9.43;;;6.78;;
16401;SDS011;8310;44.626;11.176;2023-09-07T06:25:04;18.33;;;7.82;;
16401;SDS011;8310;44.626;11.176;2023-09-07T06:27:32;11.20;;;7.68;;
16401;SDS011;8310;44.626;11.176;2023-09-07T06:30:00;13.07;;;7.75;;
16401;SDS011;8310;44.626;11.176;2023-09-07T06:32:27;10.63;;;7.38;;
16401;SDS011;8310;44.626;11.176;2023-09-07T06:34:56;9.77;;;7.70;;
16401;SDS011;8310;44.626;11.176;2023-09-07T06:37:23;12.38;;;8.02;;
16401;SDS011;8310;44.626;11.176;2023-09-07T06:39:51;18.10;;;7.75;;
16401;SDS011;8310;44.626;11.176;2023-09-07T06:42:18;17.98;;;7.80;;
16401;SDS011;8310;44.626;11.176;2023-09-07T06:44:46;14.00;;;9.10;;
16401;SDS011;8310;44.626;11.176;2023-09-07T06:47:13;24.33;;;7.60;;
16401;SDS011;8310;44.626;11.176;2023-09-07T06:49:40;20.98;;;8.35;;
16401;SDS011;8310;44.626;11.176;2023-09-07T06:52:09;19.05;;;9.10;;
16401;SDS011;8310;44.626;11.176;2023-09-07T06:54:37;20.33;;;9.05;;
16401;SDS011;8310;44.626;11.176;2023-09-07T06:57:06;17.35;;;8.80;;
16401;SDS011;8310;44.626;11.176;2023-09-07T06:59:34;13.80;;;8.48;;
16401;SDS011;8310;44.626;11.176;2023-09-07T07:02:01;15.02;;;8.98;;
16401;SDS011;8310;44.626;11.176;2023-09-07T07:04:30;14.52;;;8.30;;
16401;SDS011;8310;44.626;11.176;2023-09-07T07:06:56;13.70;;;8.70;;
16401;SDS011;8310;44.626;11.176;2023-09-07T07:09:24;14.50;;;8.93;;
16401;SDS011;8310;44.626;11.176;2023-09-07T07:11:51;17.55;;;8.98;;
16401;SDS011;8310;44.626;11.176;2023-09-07T07:14:18;13.85;;;8.52;;
16401;SDS011;8310;44.626;11.176;2023-09-07T07:16:46;15.88;;;8.00;;
16401;SDS011;8310;44.626;11.176;2023-09-07T07:19:15;15.38;;;7.75;;
16401;SDS011;8310;44.626;11.176;2023-09-07T07:21:42;19.77;;;7.70;;
16401;SDS011;8310;44.626;11.176;2023-09-07T07:24:09;10.32;;;6.70;;
16401;SDS011;8310;44.626;11.176;2023-09-07T07:26:39;11.00;;;7.20;;
16401;SDS011;8310;44.626;11.176;2023-09-07T07:29:07;9.75;;;6.38;;
16401;SDS011;8310;44.626;11.176;2023-09-07T07:34:03;9.65;;;5.38;;
16401;SDS011;8310;44.626;11.176;2023-09-07T07:36:30;11.32;;;6.38;;
16401;SDS011;8310;44.626;11.176;2023-09-07T07:38:57;13.95;;;6.07;;
16401;SDS011;8310;44.626;11.176;2023-09-07T07:41:24;15.48;;;7.10;;
16401;SDS011;8310;44.626;11.176;2023-09-07T07:43:54;22.48;;;6.32;;
16401;SDS011;8310;44.626;11.176;2023-09-07T07:46:21;12.40;;;6.35;;
16401;SDS011;8310;44.626;11.176;2023-09-07T07:48:48;14.52;;;6.30;;
16401;SDS011;8310;44.626;11.176;2023-09-07T07:51:16;11.18;;;5.70;;
16401;SDS011;8310;44.626;11.176;2023-09-07T07:53:43;11.20;;;6.50;;
16401;SDS011;8310;44.626;11.176;2023-09-07T07:56:14;20.90;;;6.18;;
16401;SDS011;8310;44.626;11.176;2023-09-07T07:58:42;11.57;;;5.18;;
16401;SDS011;8310;44.626;11.176;2023-09-07T08:01:15;10.82;;;5.22;;
16401;SDS011;8310;44.626;11.176;2023-09-07T08:03:43;8.30;;;4.53;;
16401;SDS011;8310;44.626;11.176;2023-09-07T08:06:11;8.30;;;4.95;;
16401;SDS011;8310;44.626;11.176;2023-09-07T08:08:38;8.05;;;5.13;;
16401;SDS011;8310;44.626;11.176;2023-09-07T08:11:06;7.22;;;5.00;;
16401;SDS011;8310;44.626;11.176;2023-09-07T08:13:34;10.45;;;4.72;;
16401;SDS011;8310;44.626;11.176;2023-09-07T08:16:02;6.70;;;5.20;;
16401;SDS011;8310;44.626;11.176;2023-09-07T08:18:32;19.00;;;6.15;;
16401;SDS011;8310;44.626;11.176;2023-09-07T08:21:00;8.18;;;5.43;;
16401;SDS011;8310;44.626;11.176;2023-09-07T08:23:27;18.42;;;4.97;;
16401;SDS011;8310;44.626;11.176;2023-09-07T08:25:55;15.93;;;6.10;;
16401;SDS011;8310;44.626;11.176;2023-09-07T08:28:22;21.08;;;5.80;;
16401;SDS011;8310;44.626;11.176;2023-09-07T08:30:50;11.77;;;5.10;;
16401;SDS011;8310;44.626;11.176;2023-09-07T08:33:20;8.57;;;4.70;;
16401;SDS011;8310;44.626;11.176;2023-09-07T08:35:55;11.60;;;3.80;;
16401;SDS011;8310;44.626;11.176;2023-09-07T08:38:25;6.15;;;3.88;;
16401;SDS011;8310;44.626;11.176;2023-09-07T08:43:20;7.63;;;5.20;;
16401;SDS011;8310;44.626;11.176;2023-09-07T08:45:50;7.10;;;4.20;;
16401;SDS011;8310;44.626;11.176;2023-09-07T08:48:24;8.75;;;4.18;;
16401;SDS011;8310;44.626;11.176;2023-09-07T08:50:55;8.68;;;4.40;;
16401;SDS011;8310;44.626;11.176;2023-09-07T08:53:23;10.25;;;4.60;;
16401;SDS011;8310;44.626;11.176;2023-09-07T08:55:51;9.23;;;4.00;;
16401;SDS011;8310;44.626;11.176;2023-09-07T08:58:19;12.95;;;4.57;;
16401;SDS011;8310;44.626;11.176;2023-09-07T09:00:46;10.95;;;4.25;;
16401;SDS011;8310;44.626;11.176;2023-09-07T09:03:14;6.80;;;4.35;;
16401;SDS011;8310;44.626;11.176;2023-09-07T09:05:41;8.38;;;3.55;;
16401;SDS011;8310;44.626;11.176;2023-09-07T09:08:12;8.80;;;3.38;;
16401;SDS011;8310;44.626;11.176;2023-09-07T09:10:40;8.45;;;4.13;;
16401;SDS011;8310;44.626;11.176;2023-09-07T09:13:08;11.70;;;4.70;;
16401;SDS011;8310;44.626;11.176;2023-09-07T09:15:36;10.25;;;4.88;;
16401;SDS011;8310;44.626;11.176;2023-09-07T09:18:11;10.10;;;4.40;;
16401;SDS011;8310;44.626;11.176;2023-09-07T09:20:40;10.73;;;3.85;;
16401;SDS011;8310;44.626;11.176;2023-09-07T09:23:07;8.18;;;3.60;;
16401;SDS011;8310;44.626;11.176;2023-09-07T09:25:36;8.55;;;4.70;;
16401;SDS011;8310;44.626;11.176;2023-09-07T09:28:04;10.00;;;4.28;;
16401;SDS011;8310;44.626;11.176;2023-09-07T09:30:32;8.43;;;3.28;;
16401;SDS011;8310;44.626;11.176;2023-09-07T09:32:59;9.85;;;3.38;;
16401;SDS011;8310;44.626;11.176;2023-09-07T09:35:28;11.65;;;3.20;;
16401;SDS011;8310;44.626;11.176;2023-09-07T09:38:00;7.47;;;3.50;;
16401;SDS011;8310;44.626;11.176;2023-09-07T09:40:29;9.35;;;3.65;;
16401;SDS011;8310;44.626;11.176;2023-09-07T09:42:58;7.53;;;3.40;;
16401;SDS011;8310;44.626;11.176;2023-09-07T09:45:28;5.22;;;3.90;;
16401;SDS011;8310;44.626;11.176;2023-09-07T09:47:56;8.07;;;3.75;;
16401;SDS011;8310;44.626;11.176;2023-09-07T09:50:26;6.57;;;3.40;;
16401;SDS011;8310;44.626;11.176;2023-09-07T09:52:54;5.75;;;3.90;;
16401;SDS011;8310;44.626;11.176;2023-09-07T09:55:24;10.43;;;3.20;;
16401;SDS011;8310;44.626;11.176;2023-09-07T09:57:52;5.35;;;3.47;;
16401;SDS011;8310;44.626;11.176;2023-09-07T10:00:24;13.38;;;3.03;;
16401;SDS011;8310;44.626;11.176;2023-09-07T10:02:55;8.18;;;3.50;;
16401;SDS011;8310;44.626;11.176;2023-09-07T10:05:27;16.23;;;3.47;;
16401;SDS011;8310;44.626;11.176;2023-09-07T10:07:59;7.50;;;2.80;;
16401;SDS011;8310;44.626;11.176;2023-09-07T10:10:32;8.90;;;3.10;;
16401;SDS011;8310;44.626;11.176;2023-09-07T10:13:02;4.72;;;2.97;;
16401;SDS011;8310;44.626;11.176;2023-09-07T10:15:32;8.23;;;3.08;;
16401;SDS011;8310;44.626;11.176;2023-09-07T10:18:10;11.65;;;3.40;;
16401;SDS011;8310;44.626;11.176;2023-09-07T10:20:51;9.23;;;3.13;;
16401;SDS011;8310;44.626;11.176;2023-09-07T10:23:21;6.75;;;3.00;;
16401;SDS011;8310;44.626;11.176;2023-09-07T10:25:50;5.30;;;2.92;;
16401;SDS011;8310;44.626;11.176;2023-09-07T10:28:19;5.57;;;2.88;;
16401;SDS011;8310;44.626;11.176;2023-09-07T10:33:32;6.40;;;2.88;;
16401;SDS011;8310;44.626;11.176;2023-09-07T10:36:01;5.13;;;2.58;;
16401;SDS011;8310;44.626;11.176;2023-09-07T10:38:30;6.75;;;2.55;;
16401;SDS011;8310;44.626;11.176;2023-09-07T10:40:59;7.43;;;2.72;;
16401;SDS011;8310;44.626;11.176;2023-09-07T10:43:27;8.18;;;2.33;;
16401;SDS011;8310;44.626;11.176;2023-09-07T10:45:55;6.07;;;2.38;;
16401;SDS011;8310;44.626;11.176;2023-09-07T10:48:25;8.98;;;2.28;;
16401;SDS011;8310;44.626;11.176;2023-09-07T10:50:55;7.05;;;2.60;;
16401;SDS011;8310;44.626;11.176;2023-09-07T10:55:54;5.75;;;2.58;;
16401;SDS011;8310;44.626;11.176;2023-09-07T10:58:25;5.95;;;2.25;;
16401;SDS011;8310;44.626;11.176;2023-09-07T11:00:53;6.55;;;2.67;;
16401;SDS011;8310;44.626;11.176;2023-09-07T11:03:21;6.68;;;2.50;;
16401;SDS011;8310;44.626;11.176;2023-09-07T11:05:50;6.57;;;2.55;;
16401;SDS011;8310;44.626;11.176;2023-09-07T11:08:19;5.22;;;2.40;;
16401;SDS011;8310;44.626;11.176;2023-09-07T11:10:47;10.20;;;2.35;;
16401;SDS011;8310;44.626;11.176;2023-09-07T11:13:16;7.07;;;2.72;;
16401;SDS011;8310;44.626;11.176;2023-09-07T11:15:44;5.38;;;2.20;;
16401;SDS011;8310;44.626;11.176;2023-09-07T11:18:12;6.80;;;2.40;;
16401;SDS011;8310;44.626;11.176;2023-09-07T11:20:40;7.68;;;2.63;;
16401;SDS011;8310;44.626;11.176;2023-09-07T11:23:11;7.28;;;2.28;;
16401;SDS011;8310;44.626;11.176;2023-09-07T11:25:38;3.88;;;2.53;;
16401;SDS011;8310;44.626;11.176;2023-09-07T11:28:09;5.13;;;2.35;;
16401;SDS011;8310;44.626;11.176;2023-09-07T11:30:36;5.28;;;2.38;;
16401;SDS011;8310;44.626;11.176;2023-09-07T11:33:05;6.80;;;2.40;;
16401;SDS011;8310;44.626;11.176;2023-09-07T11:35:34;5.13;;;2.63;;
16401;SDS011;8310;44.626;11.176;2023-09-07T11:38:02;4.45;;;2.75;;
16401;SDS011;8310;44.626;11.176;2023-09-07T11:40:35;6.75;;;2.50;;
16401;SDS011;8310;44.626;11.176;2023-09-07T11:43:03;4.50;;;2.55;;
16401;SDS011;8310;44.626;11.176;2023-09-07T11:45:30;6.13;;;2.55;;
16401;SDS011;8310;44.626;11.176;2023-09-07T11:47:58;7.35;;;2.75;;
16401;SDS011;8310;44.626;11.176;2023-09-07T11:50:26;11.15;;;3.10;;
16401;SDS011;8310;44.626;11.176;2023-09-07T11:52:55;8.93;;;2.38;;
16401;SDS011;8310;44.626;11.176;2023-09-07T11:55:23;4.60;;;2.60;;
16401;SDS011;8310;44.626;11.176;2023-09-07T11:57:52;7.00;;;2.65;;
16401;SDS011;8310;44.626;11.176;2023-09-07T12:00:20;12.25;;;3.00;;
16401;SDS011;8310;44.626;11.176;2023-09-07T12:02:47;6.97;;;2.67;;
16401;SDS011;8310;44.626;11.176;2023-09-07T12:05:14;8.02;;;3.15;;
16401;SDS011;8310;44.626;11.176;2023-09-07T12:07:43;6.10;;;2.40;;
16401;SDS011;8310;44.626;11.176;2023-09-07T12:10:11;5.55;;;2.50;;
16401;SDS011;8310;44.626;11.176;2023-09-07T12:12:39;6.18;;;2.72;;
16401;SDS011;8310;44.626;11.176;2023-09-07T12:15:09;6.18;;;2.30;;
16401;SDS011;8310;44.626;11.176;2023-09-07T12:17:38;6.25;;;2.35;;
16401;SDS011;8310;44.626;11.176;2023-09-07T12:20:06;3.78;;;2.30;;
16401;SDS011;8310;44.626;11.176;2023-09-07T12:22:35;6.18;;;2.35;;
16401;SDS011;8310;44.626;11.176;2023-09-07T12:25:04;2.90;;;2.10;;
16401;SDS011;8310;44.626;11.176;2023-09-07T12:27:33;5.15;;;2.25;;
16401;SDS011;8310;44.626;11.176;2023-09-07T12:30:01;4.28;;;2.50;;
16401;SDS011;8310;44.626;11.176;2023-09-07T12:32:35;4.13;;;2.30;;
16401;SDS011;8310;44.626;11.176;2023-09-07T12:35:03;8.80;;;2.40;;
16401;SDS011;8310;44.626;11.176;2023-09-07T12:37:33;6.05;;;2.25;;
16401;SDS011;8310;44.626;11.176;2023-09-07T12:40:01;2.60;;;2.20;;
16401;SDS011;8310;44.626;11.176;2023-09-07T12:42:36;3.22;;;2.00;;
16401;SDS011;8310;44.626;11.176;2023-09-07T12:45:05;4.55;;;2.20;;
16401;SDS011;8310;44.626;11.176;2023-09-07T12:47:35;3.85;;;1.92;;
16401;SDS011;8310;44.626;11.176;2023-09-07T12:50:03;7.15;;;1.92;;
16401;SDS011;8310;44.626;11.176;2023-09-07T12:52:32;5.15;;;1.98;;
16401;SDS011;8310;44.626;11.176;2023-09-07T12:55:02;3.08;;;2.15;;
16401;SDS011;8310;44.626;11.176;2023-09-07T12:57:30;9.50;;;1.83;;
16401;SDS011;8310;44.626;11.176;2023-09-07T12:59:58;5.15;;;1.98;;
16401;SDS011;8310;44.626;11.176;2023-09-07T13:02:25;6.03;;;2.25;;
16401;SDS011;8310;44.626;11.176;2023-09-07T13:04:55;2.78;;;1.90;;
16401;SDS011;8310;44.626;11.176;2023-09-07T13:07:23;4.90;;;2.08;;
16401;SDS011;8310;44.626;11.176;2023-09-07T13:09:51;4.00;;;2.20;;
16401;SDS011;8310;44.626;11.176;2023-09-07T13:12:20;11.23;;;2.33;;
16401;SDS011;8310;44.626;11.176;2023-09-07T13:14:47;5.65;;;2.03;;
16401;SDS011;8310;44.626;11.176;2023-09-07T13:17:15;8.68;;;2.10;;
16401;SDS011;8310;44.626;11.176;2023-09-07T13:19:42;7.50;;;2.30;;
16401;SDS011;8310;44.626;11.176;2023-09-07T13:24:39;4.40;;;1.75;;
16401;SDS011;8310;44.626;11.176;2023-09-07T13:27:06;7.35;;;2.25;;
16401;SDS011;8310;44.626;11.176;2023-09-07T13:29:35;6.50;;;1.83;;
16401;SDS011;8310;44.626;11.176;2023-09-07T13:34:30;3.47;;;2.10;;
16401;SDS011;8310;44.626;11.176;2023-09-07T13:36:58;3.42;;;2.35;;
16401;SDS011;8310;44.626;11.176;2023-09-07T13:39:27;9.65;;;2.33;;
16401;SDS011;8310;44.626;11.176;2023-09-07T13:41:55;7.28;;;2.03;;
16401;SDS011;8310;44.626;11.176;2023-09-07T13:44:22;8.75;;;2.40;;
16401;SDS011;8310;44.626;11.176;2023-09-07T13:46:50;6.55;;;1.90;;
16401;SDS011;8310;44.626;11.176;2023-09-07T13:49:19;3.42;;;1.88;;
16401;SDS011;8310;44.626;11.176;2023-09-07T13:51:46;7.60;;;2.28;;
16401;SDS011;8310;44.626;11.176;2023-09-07T13:54:14;7.93;;;2.28;;
16401;SDS011;8310;44.626;11.176;2023-09-07T13:56:43;5.03;;;2.10;;
16401;SDS011;8310;44.626;11.176;2023-09-07T13:59:10;5.88;;;1.90;;
16401;SDS011;8310;44.626;11.176;2023-09-07T14:01:39;4.65;;;2.40;;
16401;SDS011;8310;44.626;11.176;2023-09-07T14:04:06;6.75;;;1.85;;
16401;SDS011;8310;44.626;11.176;2023-09-07T14:06:33;2.38;;;1.65;;
16401;SDS011;8310;44.626;11.176;2023-09-07T14:09:01;3.97;;;1.98;;
16401;SDS011;8310;44.626;11.176;2023-09-07T14:11:28;3.78;;;2.25;;
16401;SDS011;8310;44.626;11.176;2023-09-07T14:13:57;3.40;;;2.13;;
16401;SDS011;8310;44.626;11.176;2023-09-07T14:16:25;5.82;;;2.20;;
16401;SDS011;8310;44.626;11.176;2023-09-07T14:18:52;7.57;;;2.17;;
16401;SDS011;8310;44.626;11.176;2023-09-07T14:21:19;2.85;;;2.20;;
16401;SDS011;8310;44.626;11.176;2023-09-07T14:23:47;5.50;;;1.95;;
16401;SDS011;8310;44.626;11.176;2023-09-07T14:26:16;5.25;;;2.22;;
16401;SDS011;8310;44.626;11.176;2023-09-07T14:31:12;9.13;;;2.20;;
16401;SDS011;8310;44.626;11.176;2023-09-07T14:33:41;3.90;;;2.05;;
16401;SDS011;8310;44.626;11.176;2023-09-07T14:38:35;5.50;;;2.20;;
16401;SDS011;8310;44.626;11.176;2023-09-07T14:41:06;3.97;;;2.10;;
16401;SDS011;8310;44.626;11.176;2023-09-07T14:43:36;4.15;;;1.80;;
16401;SDS011;8310;44.626;11.176;2023-09-07T14:46:03;5.18;;;1.90;;
16401;SDS011;8310;44.626;11.176;2023-09-07T14:48:33;4.63;;;2.15;;
16401;SDS011;8310;44.626;11.176;2023-09-07T14:51:01;5.80;;;2.10;;
16401;SDS011;8310;44.626;11.176;2023-09-07T14:53:28;7.00;;;2.05;;
16401;SDS011;8310;44.626;11.176;2023-09-07T14:55:56;9.93;;;2.53;;
16401;SDS011;8310;44.626;11.176;2023-09-07T14:58:24;5.82;;;2.13;;
16401;SDS011;8310;44.626;11.176;2023-09-07T15:00:51;4.25;;;2.00;;
16401;SDS011;8310;44.626;11.176;2023-09-07T15:03:19;9.32;;;2.03;;
16401;SDS011;8310;44.626;11.176;2023-09-07T15:05:51;5.35;;;1.80;;
16401;SDS011;8310;44.626;11.176;2023-09-07T15:08:19;4.72;;;2.05;;
16401;SDS011;8310;44.626;11.176;2023-09-07T15:10:46;5.25;;;2.28;;
16401;SDS011;8310;44.626;11.176;2023-09-07T15:13:14;4.22;;;1.95;;
16401;SDS011;8310;44.626;11.176;2023-09-07T15:15:42;5.05;;;2.25;;
16401;SDS011;8310;44.626;11.176;2023-09-07T15:18:10;4.50;;;2.00;;
16401;SDS011;8310;44.626;11.176;2023-09-07T15:20:37;6.32;;;2.28;;